Data for 09/18/2016

Time Sea-Level Adjusted Pressure Absolute Pressure Temperature Relative Humidity Dew Point   
(mb) (inHg) (mb) (inHg) (C) (F) (%) (C) (F)
00:05 1016 30 845 24.95 16.4 61.6 48 5.6 42.1
00:10 1016 30 845 24.95 16.4 61.5 49 5.6 42.1
00:15 1016 30 845 24.95 16.3 61.3 49 5.7 42.2
00:20 1016 30 845 24.95 16.3 61.3 49 5.5 42
00:25 1016 30 845 24.95 16.2 61.2 49 5.6 42
00:30 1016 30 845 24.95 16.2 61.1 49 5.5 41.9
00:35 1015 29.97 845 24.95 16.3 61.3 47 5.2 41.3
00:40 1016 30 845 24.95 16.4 61.5 48 5.4 41.7
00:45 1015 29.97 845 24.95 16.3 61.3 48 5.4 41.8
00:50 1015 29.97 845 24.95 16.2 61.2 48 5.4 41.8
00:55 1015 29.97 845 24.95 16.2 61.1 48 5.4 41.7
01:00 1016 30 845 24.95 16.2 61.1 49 5.5 41.9
01:05 1016 30 845 24.95 16.2 61.1 47 4.8 40.7
01:10 1016 30 845 24.95 16.5 61.7 45 4.7 40.4
01:15 1016 30 845 24.95 16.6 61.9 45 4.7 40.4
01:20 1016 30 845 24.95 16.8 62.2 45 4.7 40.5
01:25 1016 30 845 24.95 16.6 62 48 5.6 42.1
01:30 1016 30 845 24.95 16.4 61.4 47 5 41.1
01:35 1016 30 845 24.95 16.3 61.3 48 5.2 41.4
01:40 1016 30 845 24.95 16.2 61.1 47 5.1 41.2
01:45 1016 30 845 24.95 16.1 60.9 48 5.2 41.4
01:50 1016 30 845 24.95 16 60.7 49 5.2 41.4
01:55 1016 30 845 24.95 15.9 60.5 49 5.2 41.3
02:00 1016 30 845 24.95 15.8 60.5 49 5.3 41.5
02:05 1015 29.97 845 24.95 15.7 60.3 50 5.4 41.7
02:10 1015 29.97 845 24.95 15.7 60.2 50 5.3 41.6
02:15 1016 30 845 24.95 15.7 60.3 50 5.4 41.7
02:20 1016 30 845 24.95 15.7 60.3 50 5.4 41.7
02:25 1016 30 845 24.95 15.7 60.3 50 5.4 41.8
02:30 1015 29.97 845 24.95 15.7 60.3 51 5.7 42.2
02:35 1015 29.97 845 24.95 15.7 60.2 51 5.7 42.3
02:40 1015 29.97 845 24.95 15.7 60.2 51 5.7 42.3
02:45 1015 29.97 844 24.92 15.6 60 51 5.6 42
02:50 1015 29.97 845 24.95 15.7 60.2 49 5.2 41.3
02:55 1015 29.97 845 24.95 15.8 60.4 50 5.4 41.8
03:00 1015 29.97 845 24.95 15.7 60.2 50 5.3 41.5
03:05 1015 29.97 845 24.95 15.7 60.2 51 5.5 41.9
03:10 1015 29.97 845 24.95 15.6 60.1 50 5.2 41.4
03:15 1015 29.97 844 24.92 15.6 60.1 50 5.2 41.4
03:20 1015 29.97 844 24.92 15.7 60.2 49 5 41
03:25 1015 29.97 844 24.92 15.7 60.3 48 4.9 40.8
03:30 1015 29.97 844 24.92 15.8 60.4 48 4.9 40.8
03:35 1015 29.97 844 24.92 15.7 60.3 49 5.1 41.1
03:40 1015 29.97 844 24.92 15.6 60.1 49 5.1 41.2
03:45 1015 29.97 845 24.95 15.5 59.9 49 4.9 40.9
03:50 1015 29.97 844 24.92 15.5 59.8 50 5.1 41.1
03:55 1015 29.97 845 24.95 15.4 59.7 49 4.9 40.9
04:00 1015 29.97 845 24.95 15.5 59.8 48 4.7 40.5
04:05 1015 29.97 844 24.92 15.6 60.1 48 4.8 40.6
04:10 1015 29.97 844 24.92 15.6 60.1 48 4.8 40.6
04:15 1015 29.97 844 24.92 15.6 60.2 48 4.9 40.8
04:20 1015 29.97 844 24.92 15.6 60.1 49 5 41
04:25 1015 29.97 844 24.92 15.6 60.1 48 4.8 40.7
04:30 1015 29.97 844 24.92 15.6 60.1 48 4.9 40.8
04:35 1015 29.97 844 24.92 15.6 60.1 49 5 41
04:40 1015 29.97 844 24.92 15.5 59.9 50 5.2 41.3
04:45 1015 29.97 844 24.92 15.3 59.6 50 5.1 41.1
04:50 1015 29.97 844 24.92 15.3 59.6 50 5.1 41.1
04:55 1015 29.97 844 24.92 15.3 59.5 50 5 41.1
05:00 1015 29.97 845 24.95 15.3 59.5 51 5.2 41.4
05:05 1015 29.97 845 24.95 15.2 59.3 50 5 41.1
05:10 1015 29.97 845 24.95 15.2 59.4 50 4.8 40.7
05:15 1016 30 845 24.95 15.3 59.6 49 4.9 40.8
05:20 1015 29.97 845 24.95 15.4 59.7 50 5 41
05:25 1015 29.97 845 24.95 15.4 59.6 49 4.8 40.6
05:30 1015 29.97 845 24.95 15.4 59.7 49 4.7 40.5
05:35 1015 29.97 845 24.95 15.5 59.9 48 4.7 40.4
05:40 1015 29.97 845 24.95 15.6 60 48 4.7 40.5
05:45 1015 29.97 845 24.95 15.5 59.8 49 4.9 40.7
05:50 1016 30 845 24.95 15.3 59.5 49 4.8 40.6
05:55 1016 30 845 24.95 15.2 59.4 49 4.6 40.3
06:00 1016 30 845 24.95 15.3 59.5 48 4.5 40
06:05 1016 30 845 24.95 15.4 59.8 48 4.5 40.2
06:10 1016 30 845 24.95 15.4 59.7 48 4.5 40.1
06:15 1016 30 845 24.95 15.4 59.7 49 4.7 40.5
06:20 1016 30 845 24.95 15.2 59.4 49 4.8 40.6
06:25 1016 30 845 24.95 15.1 59.2 50 5 40.9
06:30 1016 30 845 24.95 15.1 59.2 50 4.9 40.7
06:35 1016 30 845 24.95 15.2 59.4 50 4.9 40.9
06:40 1016 30 845 24.95 15.4 59.7 49 4.8 40.7
06:45 1016 30 845 24.95 15.6 60 49 4.9 40.9
06:50 1016 30 845 24.95 15.7 60.2 48 4.9 40.8
06:55 1016 30 845 24.95 15.8 60.4 48 5 41
07:00 1016 30 845 24.95 16 60.8 48 5.1 41.2
07:05 1016 30 845 24.95 16.2 61.1 48 5.2 41.3
07:10 1016 30 845 24.95 16.3 61.3 47 5.2 41.3
07:15 1016 30 845 24.95 16.4 61.5 47 5.2 41.4
07:20 1016 30 846 24.98 16.5 61.7 47 5.1 41.2
07:25 1016 30 846 24.98 16.6 61.9 47 5.3 41.5
07:30 1017 30.03 846 24.98 16.3 61.3 48 5.4 41.7
07:35 1017 30.03 846 24.98 15.9 60.7 48 5.2 41.3
07:40 1017 30.03 846 24.98 15.9 60.6 49 5.3 41.6
07:45 1017 30.03 846 24.98 15.8 60.4 49 5.2 41.4
07:50 1017 30.03 846 24.98 16.1 60.9 49 5.5 42
07:55 1017 30.03 846 24.98 16.1 60.9 50 5.7 42.2
08:00 1017 30.03 846 24.98 15.9 60.7 50 5.6 42.1
08:05 1017 30.03 846 24.98 15.9 60.5 49 5.4 41.7
08:10 1017 30.03 846 24.98 16.3 61.3 48 5.3 41.5
08:15 1017 30.03 846 24.98 16.8 62.2 46 5.3 41.6
08:20 1017 30.03 846 24.98 17.1 62.7 45 5.3 41.5
08:25 1017 30.03 846 24.98 17.3 63.1 45 5.4 41.8
08:30 1017 30.03 846 24.98 17.2 62.9 45 5.4 41.6
08:35 1017 30.03 846 24.98 17.4 63.4 44 5.3 41.6
08:40 1017 30.03 846 24.98 17.8 64 44 5.4 41.7
08:45 1017 30.03 846 24.98 18 64.4 44 5.6 42.1
08:50 1017 30.03 846 24.98 18.5 65.3 41 4.9 40.9
08:55 1017 30.03 846 24.98 19 66.1 38 4.5 40.1
09:00 1017 30.03 846 24.98 18.9 66.1 38 4.4 40
09:05 1017 30.03 846 24.98 18.9 66 38 4.5 40.2
09:10 1017 30.03 846 24.98 19.2 66.6 36 3.8 38.8
09:15 1017 30.03 846 24.98 19.4 66.9 35 3.7 38.7
09:20 1017 30.03 846 24.98 19.1 66.5 36 4 39.2
09:25 1017 30.03 847 25.01 19.4 66.9 35 3.9 39
09:30 1017 30.03 847 25.01 19.6 67.3 34 3.7 38.6
09:35 1017 30.03 847 25.01 19.9 67.8 34 3.7 38.7
09:40 1017 30.03 847 25.01 19.7 67.5 35 4 39.1
09:45 1017 30.03 847 25.01 19.8 67.6 34 3.5 38.2
09:50 1017 30.03 847 25.01 20.1 68.1 33 3.7 38.6
09:55 1017 30.03 847 25.01 20.1 68.1 36 4.6 40.2
10:00 1017 30.03 847 25.01 19.5 67.2 35 3.9 39.1
10:05 1017 30.03 847 25.01 20 68 32 3 37.5
10:10 1017 30.03 847 25.01 19.4 67 35 3.7 38.6
10:15 1017 30.03 847 25.01 18.9 66.1 34 3 37.4
10:20 1017 30.03 847 25.01 19.6 67.2 33 3 37.4
10:25 1017 30.03 847 25.01 19.7 67.5 34 3.4 38.2
10:30 1017 30.03 847 25.01 19.9 67.9 34 3.8 38.8
10:35 1017 30.03 847 25.01 19.6 67.4 35 3.8 38.9
10:40 1017 30.03 847 25.01 19.7 67.4 34 3.4 38.1
10:45 1017 30.03 846 24.98 20 68.1 31 2.4 36.4
10:50 1017 30.03 846 24.98 19.8 67.6 30 2.1 35.7
10:55 1017 30.03 847 25.01 19.8 67.6 30 1.9 35.4
11:00 1017 30.03 847 25.01 19.9 67.8 29 1.3 34.3
11:05 1017 30.03 847 25.01 19.6 67.2 30 1.7 35
11:10 1017 30.03 847 25.01 19.3 66.7 30 1.6 34.9
11:15 1017 30.03 847 25.01 19.2 66.5 30 1.2 34.2
11:20 1017 30.03 847 25.01 19.3 66.7 30 1.4 34.6
11:25 1017 30.03 847 25.01 19.4 66.9 32 2.3 36.2
11:30 1017 30.03 846 24.98 19.2 66.5 32 2.3 36.2
11:35 1017 30.03 846 24.98 19.1 66.5 33 2.4 36.4
11:40 1017 30.03 846 24.98 19.2 66.6 32 2.2 35.9
11:45 1017 30.03 846 24.98 19.3 66.7 31 1.9 35.4
11:50 1017 30.03 846 24.98 19.3 66.8 32 2.2 36
11:55 1017 30.03 846 24.98 19.3 66.8 31 2.1 35.8
12:00 1017 30.03 847 25.01 19.5 67.1 30 1.6 35
12:05 1017 30.03 847 25.01 20.1 68.1 29 1.5 34.6
12:10 1017 30.03 846 24.98 20.6 69.1 30 2.7 36.8
12:15 1017 30.03 846 24.98 20.5 68.8 32 3.3 38
12:20 1017 30.03 847 25.01 20.4 68.6 32 3.2 37.8
12:25 1017 30.03 846 24.98 19.9 67.9 31 2.5 36.5
12:30 1017 30.03 846 24.98 19.6 67.2 32 2.5 36.5
12:35 1017 30.03 846 24.98 19.3 66.7 33 2.9 37.2
12:40 1017 30.03 846 24.98 19.2 66.6 33 2.6 36.8
12:45 1017 30.03 847 25.01 19.3 66.8 33 3 37.3
12:50 1017 30.03 847 25.01 19.7 67.5 29 1.2 34.2
12:55 1017 30.03 846 24.98 20.1 68.3 30 2 35.6
13:00 1017 30.03 846 24.98 20.1 68.1 29 1.8 35.2
13:05 1017 30.03 846 24.98 20 67.9 29 1.7 35
13:10 1017 30.03 846 24.98 19.9 67.9 31 2.5 36.5
13:15 1017 30.03 846 24.98 19.8 67.7 33 3.3 37.9
13:20 1017 30.03 846 24.98 19.6 67.3 34 3.6 38.4
13:25 1017 30.03 846 24.98 19.5 67.2 35 3.9 39
13:30 1017 30.03 846 24.98 19 66.2 37 4.1 39.4
13:35 1017 30.03 846 24.98 18.2 64.8 39 4.2 39.5
13:40 1017 30.03 846 24.98 18.5 65.3 37 3.9 38.9
13:45 1017 30.03 846 24.98 19.2 66.5 35 3.6 38.4
13:50 1017 30.03 846 24.98 19.2 66.6 37 4.1 39.4
13:55 1017 30.03 846 24.98 18.9 66.1 34 2.7 36.8
14:00 1017 30.03 846 24.98 19.2 66.5 34 2.9 37.2
14:05 1017 30.03 846 24.98 19.7 67.4 31 2.1 35.7
14:10 1017 30.03 846 24.98 20 68 31 2.6 36.6
14:15 1017 30.03 846 24.98 19.7 67.5 31 2.3 36.2
14:20 1017 30.03 846 24.98 19.7 67.4 32 2.7 36.9
14:25 1017 30.03 846 24.98 19.7 67.5 32 2.6 36.8
14:30 1017 30.03 846 24.98 20.2 68.3 30 2 35.6
14:35 1017 30.03 846 24.98 20.3 68.6 25 0 32.1
14:40 1017 30.03 846 24.98 20.3 68.5 28 1.2 34.2
14:45 1017 30.03 846 24.98 20.2 68.3 27 0.8 33.5
14:50 1017 30.03 846 24.98 20.2 68.4 27 0.7 33.3
14:55 1017 30.03 846 24.98 20.4 68.7 27 0.9 33.6
15:00 1017 30.03 846 24.98 20.8 69.4 26 0.6 33
15:05 1017 30.03 846 24.98 20.6 69.1 26 0.8 33.4
15:10 1017 30.03 846 24.98 20.9 69.5 26 0.7 33.3
15:15 1017 30.03 846 24.98 21.2 70.2 24 0.2 32.3
15:20 1017 30.03 846 24.98 21.5 70.7 23 -0 31.9
15:25 1017 30.03 846 24.98 21.9 71.3 24 0.7 33.3
15:30 1017 30.03 846 24.98 22 71.6 24 0.6 33.1
15:35 1017 30.03 846 24.98 21.8 71.3 25 1.4 34.5
15:40 1017 30.03 846 24.98 21.9 71.4 25 1.2 34.2
15:45 1017 30.03 846 24.98 21.8 71.2 24 0.5 32.9
15:50 1017 30.03 846 24.98 21.2 70.1 25 0.6 33
15:55 1017 30.03 846 24.98 21.1 70 23 -0.5 31
16:00 1017 30.03 846 24.98 20.9 69.7 23 -0.6 31
16:05 1017 30.03 846 24.98 20.7 69.3 22 -1.4 29.5
16:10 1017 30.03 846 24.98 20.7 69.2 23 -0.9 30.4
16:15 1017 30.03 846 24.98 20.7 69.3 23 -1.3 29.7
16:20 1017 30.03 846 24.98 20.8 69.4 23 -1.2 29.9
16:25 1017 30.03 846 24.98 20.9 69.6 24 -0.3 31.4
16:30 1017 30.03 846 24.98 21 69.8 24 -0.3 31.4
16:35 1017 30.03 846 24.98 20.8 69.4 24 -0.1 31.9
16:40 1017 30.03 846 24.98 20.3 68.6 26 0.2 32.4
16:45 1017 30.03 846 24.98 19.8 67.7 27 0.4 32.7
16:50 1017 30.03 846 24.98 19.6 67.3 27 0.2 32.3
16:55 1017 30.03 846 24.98 19.5 67.1 27 0.4 32.7
17:00 1017 30.03 846 24.98 19.6 67.3 26 -0.3 31.5
17:05 1017 30.03 846 24.98 19.6 67.3 27 0.1 32.2
17:10 1017 30.03 846 24.98 19.4 67 27 -0 32
17:15 1017 30.03 846 24.98 19.2 66.5 27 -0 32
17:20 1017 30.03 846 24.98 19 66.3 27 -0.1 31.9
17:25 1017 30.03 846 24.98 19.2 66.5 28 0.3 32.5
17:30 1017 30.03 846 24.98 19.2 66.5 29 0.7 33.2
17:35 1017 30.03 846 24.98 19.1 66.4 28 0.2 32.4
17:40 1017 30.03 846 24.98 19 66.1 28 0.2 32.4
17:45 1017 30.03 846 24.98 18.9 66 29 0.8 33.5
17:50 1017 30.03 846 24.98 18.8 65.8 29 0.6 33.1
17:55 1017 30.03 846 24.98 18.8 65.8 29 0.7 33.3
18:00 1017 30.03 846 24.98 18.7 65.6 30 0.8 33.5
18:05 1017 30.03 846 24.98 18.5 65.4 31 1.1 33.9
18:10 1017 30.03 847 25.01 18.4 65.1 31 1.1 34
18:15 1017 30.03 847 25.01 18.3 65 32 1.4 34.5
18:20 1017 30.03 846 24.98 18.2 64.8 31 1 33.8
18:25 1017 30.03 847 25.01 18.2 64.7 31 0.9 33.6
18:30 1017 30.03 847 25.01 17.9 64.3 33 1.7 35.1
18:35 1017 30.03 847 25.01 17.5 63.5 35 2.1 35.7
18:40 1018 30.06 847 25.01 17.2 63 36 2.2 36
18:45 1018 30.06 847 25.01 17.3 63.1 32 0.7 33.3
18:50 1018 30.06 847 25.01 17.6 63.7 33 1.3 34.4
18:55 1018 30.06 847 25.01 17.6 63.7 32 0.7 33.2
19:00 1018 30.06 847 25.01 17.6 63.8 32 1 33.8
19:05 1018 30.06 847 25.01 17.6 63.7 32 1 33.8
19:10 1018 30.06 847 25.01 17.6 63.6 32 0.8 33.5
19:15 1018 30.06 847 25.01 17.5 63.6 33 1.1 34
19:20 1018 30.06 847 25.01 17.4 63.4 33 0.9 33.7
19:25 1018 30.06 847 25.01 17.4 63.4 34 1.3 34.4
19:30 1018 30.06 847 25.01 17.4 63.3 33 1 33.8
19:35 1018 30.06 848 25.04 17.3 63.1 33 1.1 34
19:40 1018 30.06 847 25.01 17.2 62.9 33 0.8 33.4
19:45 1018 30.06 848 25.04 17.2 63 33 0.9 33.5
19:50 1018 30.06 848 25.04 17.2 63 33 0.9 33.6
19:55 1018 30.06 848 25.04 17 62.7 34 1 33.8
20:00 1018 30.06 848 25.04 16.9 62.4 33 0.8 33.5
20:05 1019 30.09 848 25.04 16.8 62.2 35 1.4 34.5
20:10 1019 30.09 848 25.04 16.6 61.9 35 1.1 34.1
20:15 1019 30.09 848 25.04 16.6 61.9 35 1.3 34.4
20:20 1019 30.09 848 25.04 16.5 61.7 35 1.2 34.2
20:25 1019 30.09 848 25.04 16.4 61.5 36 1.5 34.6
20:30 1019 30.09 848 25.04 16.1 61 37 1.4 34.6
20:35 1019 30.09 848 25.04 16 60.9 36 1.2 34.2
20:40 1019 30.09 848 25.04 16 60.8 37 1.4 34.6
20:45 1019 30.09 848 25.04 15.9 60.6 38 1.6 34.8
20:50 1019 30.09 848 25.04 15.8 60.5 38 1.7 35.1
20:55 1019 30.09 848 25.04 15.9 60.5 37 1.4 34.5
21:00 1019 30.09 848 25.04 15.8 60.4 38 1.8 35.2
21:05 1019 30.09 848 25.04 15.7 60.2 39 1.7 35.1
21:10 1019 30.09 848 25.04 15.6 60 38 1.5 34.7
21:15 1019 30.09 848 25.04 15.5 59.9 38 1.4 34.4
21:20 1019 30.09 848 25.04 15.5 59.8 38 1.3 34.3
21:25 1019 30.09 849 25.07 15.4 59.8 38 1.3 34.3
21:30 1019 30.09 849 25.07 15.4 59.7 40 2 35.5
21:35 1019 30.09 849 25.07 15.3 59.5 40 1.9 35.5
21:40 1020 30.12 849 25.07 15.1 59.2 41 2.1 35.7
21:45 1020 30.12 849 25.07 15 59 43 2.5 36.6
21:50 1020 30.12 849 25.07 14.9 58.7 44 2.7 36.8
21:55 1020 30.12 849 25.07 14.7 58.4 44 2.6 36.6
22:00 1020 30.12 849 25.07 14.5 58.1 44 2.5 36.5
22:05 1020 30.12 849 25.07 14.4 57.9 45 2.8 37
22:10 1020 30.12 849 25.07 14.2 57.5 47 3.2 37.8
22:15 1020 30.12 849 25.07 13.8 56.9 48 3.2 37.7
22:20 1020 30.12 849 25.07 13.6 56.5 49 3.1 37.6
22:25 1020 30.12 849 25.07 13.5 56.3 49 3 37.5
22:30 1020 30.12 849 25.07 13.4 56.2 49 3.1 37.5
22:35 1020 30.12 849 25.07 13.4 56.1 49 2.9 37.2
22:40 1020 30.12 850 25.1 13.3 56 49 3 37.4
22:45 1020 30.12 849 25.07 13.2 55.8 49 2.9 37.2
22:50 1020 30.12 850 25.1 13.3 55.9 49 2.9 37.3
22:55 1021 30.15 850 25.1 13.2 55.8 49 2.9 37.1
23:00 1021 30.15 850 25.1 13.2 55.8 50 3 37.4
23:05 1021 30.15 850 25.1 13 55.5 51 3.2 37.8
23:10 1021 30.15 850 25.1 12.8 55.1 52 3.3 37.9
23:15 1021 30.15 850 25.1 12.8 55.1 51 3.1 37.6
23:20 1021 30.15 850 25.1 13 55.3 52 3.4 38.1
23:25 1021 30.15 850 25.1 13.1 55.6 51 3.3 38
23:30 1021 30.15 850 25.1 13.1 55.7 50 3.1 37.5
23:35 1021 30.15 850 25.1 13.1 55.6 50 3.1 37.6
23:40 1021 30.15 850 25.1 13 55.4 53 3.8 38.8
23:45 1021 30.15 850 25.1 12.9 55.2 54 3.8 38.8
23:50 1021 30.15 850 25.1 12.8 55 58 4.8 40.6
23:55 1021 30.15 850 25.1 12.4 54.3 59 4.8 40.6
24:00 1021 30.15 850 25.1 11.9 53.5 62 4.8 40.7